Terminal Aerodrome Forecast
Issued by NWS

Current Version | Previous Version | Graphics & Text | Print | Product List | Glossary On
Versions: 1 2 3 4 5 6 7 8 9 10 11 12 13 14 15 16 17 18 19 20 21 22
000
FTUS41 KILN 242300
TAFLUK
TAF
KLUK 242332Z 2500/2524 10005KT P6SM VCSH OVC080
     FM250900 18012G20KT 4SM -SHRA OVC035
     FM251500 23013G23KT P6SM SCT035 SCT250
     FM252200 23008KT P6SM SCT040 BKN150=

USA.gov is the U.S. government's official web portal to all federal, state and local government web resources and services.